Terminal Aerodrome Forecast
Issued by NWS St Louis, MO

Home | Current Version | Previous Version | Text Only | Print | Product List | Glossary On
Versions: 1 2 3 4 5 6 7 8 9 10 11 12 13 14 15 16 17 18 19 20 21 22 23 24
000
FTUS43 KLSX 140520
TAFCOU
TAF
KCOU 140520Z 1406/1506 VRB04KT P6SM BKN050
     FM141400 20005KT P6SM BKN025
     FM141700 19006KT P6SM SCT040 BKN250
     FM150100 18005KT P6SM SCT250=

USA.gov is the U.S. government's official web portal to all federal, state and local government web resources and services.